Time;durP1;ratioP1;P1;durP2;ratioP2;P2;SDS_P1;SDS_P2;PMS_P1;PMS_P2;Temp;Humidity;BMP_temperature;BMP_pressure;BME280_temperature;BME280_humidity;BME280_pressure;Samples;Min_cycle;Max_cycle;Signal;HPM_P1;HPM_P2
2023/09/02 00:04:47;;;;;;;5.40;1.45;;;;;;;15.23;100.00;97888.84;18301991;32;20058;-58
2023/09/02 00:14:50;;;;;;;2.42;1.33;;;;;;;15.20;100.00;97867.66;18287320;32;20061;-58
2023/09/02 00:24:52;;;;;;;3.37;1.48;;;;;;;15.12;100.00;97870.25;18287060;32;20069;-58
2023/09/02 00:34:55;;;;;;;3.62;1.70;;;;;;;15.01;100.00;97866.84;18300445;32;20050;-57
2023/09/02 00:44:57;;;;;;;2.37;1.30;;;;;;;14.90;100.00;97861.53;18300030;32;20054;-58
2023/09/02 00:55:01;;;;;;;3.40;1.60;;;;;;;14.82;100.00;97864.91;18299495;32;20050;-57
2023/09/02 01:05:06;;;;;;;4.12;1.80;;;;;;;14.80;100.00;97869.03;18272851;32;20062;-58
2023/09/02 01:15:08;;;;;;;3.65;1.30;;;;;;;14.72;100.00;97874.03;18298456;32;20465;-58
2023/09/02 01:25:37;;;;;;;4.35;1.33;;;;;;;14.69;100.00;97880.06;18283847;32;20100;-57
2023/09/02 01:35:45;;;;;;;5.60;1.50;;;;;;;14.63;100.00;97896.75;18297250;32;20069;-58
2023/09/02 01:45:48;;;;;;;3.62;1.40;;;;;;;14.58;100.00;97890.22;18282783;32;20087;-57
2023/09/02 01:55:52;;;;;;;5.20;1.40;;;;;;;14.50;100.00;97888.16;18296668;32;20054;-58
2023/09/02 02:05:58;;;;;;;5.62;1.12;;;;;;;14.40;100.00;97889.09;18282316;32;20050;-58
2023/09/02 02:16:00;;;;;;;2.67;1.20;;;;;;;14.35;100.00;97902.72;18282635;32;20068;-58
2023/09/02 02:26:04;;;;;;;2.42;1.27;;;;;;;14.27;100.00;97905.28;18294698;32;20062;-57
2023/09/02 02:36:09;;;;;;;4.68;1.60;;;;;;;14.18;100.00;97919.50;18294539;32;20098;-58
2023/09/02 02:46:11;;;;;;;3.90;1.20;;;;;;;14.11;100.00;97924.47;18294367;32;20747;-58
2023/09/02 02:56:14;;;;;;;1.45;1.15;;;;;;;14.03;100.00;97916.91;18280299;32;20446;-58
2023/09/02 03:06:19;;;;;;;6.50;1.73;;;;;;;13.92;100.00;97915.41;18279615;32;20073;-57
2023/09/02 03:16:21;;;;;;;3.35;1.25;;;;;;;13.90;100.00;97918.41;18267172;32;20089;-57
2023/09/02 03:26:26;;;;;;;2.95;1.40;;;;;;;13.83;100.00;97918.75;18278975;32;20357;-57
2023/09/02 03:36:29;;;;;;;2.67;1.30;;;;;;;13.75;100.00;97926.69;18292282;32;20053;-57
2023/09/02 03:46:31;;;;;;;5.32;1.23;;;;;;;13.66;100.00;97918.31;18292058;32;20058;-57
2023/09/02 03:56:36;;;;;;;5.53;1.30;;;;;;;13.59;100.00;97917.84;18300704;32;20046;-57
2023/09/02 04:06:39;;;;;;;3.30;1.15;;;;;;;13.52;100.00;97918.97;18301871;32;20362;-57
2023/09/02 04:16:41;;;;;;;2.15;1.20;;;;;;;13.46;100.00;97911.97;18301301;32;20077;-57
2023/09/02 04:26:43;;;;;;;2.80;1.30;;;;;;;13.43;100.00;97919.84;18287340;32;20109;-57
2023/09/02 04:36:45;;;;;;;3.83;1.60;;;;;;;13.36;100.00;97937.28;18286275;32;20058;-58
2023/09/02 04:46:48;;;;;;;6.07;1.33;;;;;;;13.33;100.00;97940.56;18286275;32;20076;-57
2023/09/02 04:56:50;;;;;;;1.65;1.10;;;;;;;13.33;100.00;97940.56;18299574;32;20121;-57
2023/09/02 05:06:52;;;;;;;2.80;1.30;;;;;;;13.31;100.00;97950.87;18285181;32;20093;-57
2023/09/02 05:16:54;;;;;;;2.50;1.40;;;;;;;13.36;100.00;97955.47;18298207;32;20084;-57
2023/09/02 05:26:57;;;;;;;2.67;1.23;;;;;;;13.31;100.00;97964.44;18298024;32;20102;-57
2023/09/02 05:37:00;;;;;;;4.47;1.58;;;;;;;13.32;100.00;97965.25;18283791;32;20399;-57
2023/09/02 05:47:02;;;;;;;1.85;1.23;;;;;;;13.44;100.00;97979.34;18296989;32;20550;-57
2023/09/02 05:57:05;;;;;;;2.12;1.50;;;;;;;13.72;100.00;97993.31;18296629;32;20369;-57
2023/09/02 06:07:07;;;;;;;3.50;1.27;;;;;;;14.08;100.00;97993.00;18282317;32;20050;-57
2023/09/02 06:17:10;;;;;;;1.25;1.00;;;;;;;14.46;100.00;98009.53;18295512;32;20430;-57
2023/09/02 06:27:12;;;;;;;1.45;1.05;;;;;;;14.82;100.00;98024.72;18281206;32;20393;-57
2023/09/02 06:37:14;;;;;;;1.80;1.20;;;;;;;15.05;100.00;98034.00;18294676;32;20054;-57
2023/09/02 06:47:17;;;;;;;2.22;1.67;;;;;;;15.30;100.00;98030.12;18280868;32;20387;-57
2023/09/02 06:57:19;;;;;;;2.05;1.48;;;;;;;15.53;100.00;98050.28;18294085;32;20426;-57
2023/09/02 07:07:22;;;;;;;2.40;1.25;;;;;;;15.83;100.00;98063.81;18293361;32;20046;-57
2023/09/02 07:17:28;;;;;;;2.08;1.23;;;;;;;16.14;100.00;98068.81;18293149;32;20373;-58
2023/09/02 07:27:32;;;;;;;3.65;1.70;;;;;;;16.49;100.00;98078.31;18271132;32;20070;-57
2023/09/02 07:37:35;;;;;;;1.45;1.02;;;;;;;16.75;100.00;98070.50;18303025;32;20463;-57
2023/09/02 07:47:37;;;;;;;2.35;1.60;;;;;;;17.10;100.00;98089.28;18303083;32;20062;-57
2023/09/02 07:57:40;;;;;;;2.08;1.48;;;;;;;17.45;100.00;98078.78;18276246;32;20073;-57
2023/09/02 08:07:44;;;;;;;2.12;1.27;;;;;;;17.86;100.00;98093.50;18301895;32;20074;-57
2023/09/02 08:17:47;;;;;;;2.53;1.62;;;;;;;18.24;100.00;98080.31;18301482;32;20058;-58
2023/09/02 08:27:50;;;;;;;;;;;;;;;18.67;100.00;98084.47;18287636;32;20121;-57
2023/09/02 08:37:56;;;;;;;3.28;2.05;;;;;;;19.06;100.00;98090.34;18300075;32;20313;-57
2023/09/02 08:48:01;;;;;;;2.30;1.80;;;;;;;19.48;100.00;98085.34;18299840;32;20102;-58
2023/09/02 08:58:04;;;;;;;3.00;1.92;;;;;;;19.94;100.00;98094.19;18285129;32;20038;-58
2023/09/02 09:08:09;;;;;;;2.85;1.85;;;;;;;20.34;100.00;98095.94;18285171;32;20427;-58
2023/09/02 09:18:12;;;;;;;4.70;2.00;;;;;;;20.74;100.00;98095.78;18298596;32;20339;-58
2023/09/02 09:28:15;;;;;;;1.90;1.37;;;;;;;21.18;100.00;98095.63;18297878;32;20066;-58
2023/09/02 09:38:18;;;;;;;2.50;1.80;;;;;;;21.53;100.00;98098.25;18297565;32;20433;-58
2023/09/02 09:48:21;;;;;;;2.85;1.50;;;;;;;21.98;100.00;98090.19;18296384;32;20101;-58
2023/09/02 09:58:24;;;;;;;2.28;1.60;;;;;;;22.37;100.00;98089.28;18296536;32;20077;-58
2023/09/02 10:08:27;;;;;;;4.18;1.58;;;;;;;22.74;100.00;98081.13;18296090;32;20101;-58
2023/09/02 10:18:29;;;;;;;;;;;;;;;23.15;100.00;98076.62;18295745;32;20476;-58
2023/09/02 10:28:40;;;;;;;2.33;1.83;;;;;;;23.54;100.00;98066.03;18295412;32;19968;-58
2023/09/02 10:38:48;;;;;;;2.72;1.92;;;;;;;23.94;100.00;98059.81;18294203;32;20101;-58
2023/09/02 10:48:51;;;;;;;2.62;1.75;;;;;;;24.27;100.00;98036.69;18294242;32;20054;-58
2023/09/02 10:58:55;;;;;;;4.00;1.87;;;;;;;24.65;100.00;98045.59;18281721;32;20054;-58
2023/09/02 11:08:59;;;;;;;3.78;1.70;;;;;;;24.89;100.00;98052.13;18305023;32;20054;-58
2023/09/02 11:19:04;;;;;;;2.28;1.80;;;;;;;25.28;100.00;98055.88;18290550;32;20436;-58
2023/09/02 11:29:28;;;;;;;2.15;1.40;;;;;;;25.66;100.00;98054.41;18304076;32;20058;-58
2023/09/02 11:39:32;;;;;;;2.10;1.30;;;;;;;26.03;99.90;98061.59;18303490;32;20065;-58
2023/09/02 11:49:36;;;;;;;2.20;1.70;;;;;;;26.31;95.78;98077.19;18303118;32;20065;-58
2023/09/02 11:59:38;;;;;;;2.78;1.70;;;;;;;26.63;91.99;98080.59;18302192;32;20121;-58
2023/09/02 12:09:42;;;;;;;2.35;1.60;;;;;;;26.94;81.93;98081.59;18301323;32;20118;-58
2023/09/02 12:19:45;;;;;;;2.33;1.37;;;;;;;27.28;81.25;98079.00;18301462;32;20054;-58
2023/09/02 12:29:55;;;;;;;1.80;1.30;;;;;;;27.85;83.36;98086.63;18301132;32;20076;-58
2023/09/02 12:40:09;;;;;;;3.13;1.70;;;;;;;28.20;78.69;98079.97;18286631;32;20126;-58
2023/09/02 12:50:12;;;;;;;3.28;1.80;;;;;;;28.42;77.20;98086.59;18300039;32;20054;-59
2023/09/02 13:00:15;;;;;;;2.47;1.60;;;;;;;28.72;64.51;98081.03;18285905;32;20387;-59
2023/09/02 13:10:18;;;;;;;3.12;1.45;;;;;;;29.16;66.75;98082.25;18299365;32;20085;-59
2023/09/02 13:20:21;;;;;;;2.58;1.45;;;;;;;29.71;62.97;98089.84;18298195;32;20062;-59
2023/09/02 13:30:23;;;;;;;3.45;1.75;;;;;;;29.78;58.95;98099.41;18284605;32;20097;-58
2023/09/02 13:40:36;;;;;;;3.95;1.52;;;;;;;30.07;52.99;98098.44;18297040;32;20112;-58
2023/09/02 13:50:42;;;;;;;2.67;1.67;;;;;;;30.57;55.43;98108.25;18297143;32;20422;-58
2023/09/02 14:00:47;;;;;;;3.17;1.87;;;;;;;30.94;51.38;98112.72;18296857;32;20054;-58
2023/09/02 14:10:52;;;;;;;3.87;2.00;;;;;;;31.15;49.82;98117.59;18282655;32;20050;-58
2023/09/02 14:20:55;;;;;;;2.70;1.50;;;;;;;31.15;48.79;98122.34;18295572;32;20072;-59
2023/09/02 14:30:58;;;;;;;2.25;1.67;;;;;;;30.52;50.40;98116.97;18295262;32;20111;-58
2023/09/02 14:41:01;;;;;;;1.98;1.67;;;;;;;29.90;46.52;98118.66;18280396;32;20101;-58
2023/09/02 14:51:04;;;;;;;1.65;1.30;;;;;;;29.44;46.91;98102.34;18294272;32;20054;-58
2023/09/02 15:01:13;;;;;;;2.95;1.50;;;;;;;28.89;51.92;98090.72;18280267;32;20062;-58
2023/09/02 15:11:16;;;;;;;2.08;1.42;;;;;;;28.54;50.39;98079.97;18293656;32;20058;-58
2023/09/02 15:21:19;;;;;;;3.17;1.98;;;;;;;28.18;58.24;98071.22;18279107;32;20073;-58
2023/09/02 15:31:23;;;;;;;1.80;1.45;;;;;;;28.05;56.70;98067.88;18292760;32;20062;-58
2023/09/02 15:41:27;;;;;;;3.10;1.73;;;;;;;27.88;60.41;98072.00;18291855;32;20090;-58
2023/09/02 15:51:30;;;;;;;2.50;1.75;;;;;;;27.52;61.19;98063.94;18299766;32;20050;-58
2023/09/02 16:01:34;;;;;;;2.17;1.62;;;;;;;27.07;61.97;98064.78;18302260;32;20450;-58
2023/09/02 16:11:38;;;;;;;1.90;1.58;;;;;;;26.71;67.97;98067.72;18301977;32;20058;-57
2023/09/02 16:21:41;;;;;;;3.10;1.80;;;;;;;26.48;73.18;98064.87;18287538;32;20049;-58
2023/09/02 16:31:44;;;;;;;1.92;1.48;;;;;;;26.34;77.93;98068.13;18301029;32;20073;-58
2023/09/02 16:41:46;;;;;;;2.17;1.40;;;;;;;25.77;85.32;98068.50;18300210;32;20468;-58
2023/09/02 16:51:49;;;;;;;3.45;1.48;;;;;;;25.29;93.25;98076.88;18300091;32;20073;-58
2023/09/02 17:01:52;;;;;;;2.83;1.50;;;;;;;24.83;99.56;98076.47;18299083;32;20437;-58
2023/09/02 17:11:55;;;;;;;3.00;1.75;;;;;;;24.40;100.00;98084.41;18285374;32;20358;-58
2023/09/02 17:21:59;;;;;;;2.40;1.40;;;;;;;23.93;100.00;98091.34;18298361;32;20501;-58
2023/09/02 17:32:02;;;;;;;2.83;1.48;;;;;;;23.56;100.00;98101.56;18297913;32;20061;-58
2023/09/02 17:42:05;;;;;;;2.80;1.50;;;;;;;23.20;100.00;98097.66;18283773;32;20061;-58
2023/09/02 17:52:08;;;;;;;2.47;1.48;;;;;;;22.88;100.00;98111.16;18296661;32;20065;-58
2023/09/02 18:02:10;;;;;;;3.90;1.70;;;;;;;22.49;100.00;98127.91;18296506;32;20070;-58
2023/09/02 18:12:13;;;;;;;2.17;1.48;;;;;;;22.09;100.00;98131.09;18281749;32;20077;-58
2023/09/02 18:22:16;;;;;;;3.62;1.42;;;;;;;21.77;100.00;98145.22;18281900;32;20113;-58
2023/09/02 18:32:19;;;;;;;3.65;2.00;;;;;;;21.45;100.00;98168.66;18295190;32;20093;-58
2023/09/02 18:42:22;;;;;;;2.85;2.10;;;;;;;21.13;100.00;98170.84;18294441;32;20085;-58
2023/09/02 18:52:24;;;;;;;3.42;1.87;;;;;;;20.82;100.00;98169.94;18267807;32;20109;-58
2023/09/02 19:02:27;;;;;;;5.67;2.27;;;;;;;20.53;100.00;98192.56;18293786;32;20107;-58
2023/09/02 19:12:30;;;;;;;4.90;2.30;;;;;;;20.30;100.00;98197.41;18293594;32;20076;-58
2023/09/02 19:22:44;;;;;;;6.53;3.97;;;;;;;20.08;100.00;98201.09;18297948;32;20066;-58
2023/09/02 19:32:47;;;;;;;13.20;6.10;;;;;;;19.85;100.00;98214.91;18304037;32;20151;-58
2023/09/02 19:42:52;;;;;;;6.40;4.27;;;;;;;19.65;100.00;98229.94;18302990;32;20046;-58
2023/09/02 19:52:55;;;;;;;5.60;3.25;;;;;;;19.43;100.00;98231.66;18302908;32;20537;-58
2023/09/02 20:02:58;;;;;;;8.07;4.23;;;;;;;19.26;100.00;98232.34;18302564;32;20058;-58
2023/09/02 20:13:01;;;;;;;8.40;5.87;;;;;;;19.10;100.00;98240.16;18302941;32;20187;-58
2023/09/02 20:23:04;;;;;;;7.53;5.47;;;;;;;18.91;100.00;98251.31;18301339;32;20072;-58
2023/09/02 20:33:06;;;;;;;5.60;3.90;;;;;;;18.72;100.00;98267.06;18300019;32;20061;-58
2023/09/02 20:43:10;;;;;;;4.73;3.10;;;;;;;18.56;100.00;98277.56;18286671;32;20065;-58
2023/09/02 20:53:12;;;;;;;11.57;6.28;;;;;;;18.39;100.00;98259.03;18286782;32;20061;-58
2023/09/02 21:03:14;;;;;;;11.18;5.60;;;;;;;18.22;100.00;98276.88;18299955;32;20057;-58
2023/09/02 21:13:17;;;;;;;8.73;4.90;;;;;;;18.10;100.00;98284.81;18298819;32;20069;-58
2023/09/02 21:23:20;;;;;;;5.53;3.83;;;;;;;17.96;100.00;98290.28;18298436;32;20121;-58
2023/09/02 21:33:22;;;;;;;5.82;2.90;;;;;;;17.82;100.00;98283.97;18297747;32;20101;-57
2023/09/02 21:43:25;;;;;;;4.70;3.30;;;;;;;17.70;100.00;98290.72;18296313;32;20093;-58
2023/09/02 21:53:28;;;;;;;6.87;4.37;;;;;;;17.59;100.00;98305.69;18283320;32;20340;-58
2023/09/02 22:03:33;;;;;;;8.93;4.43;;;;;;;17.48;100.00;98315.19;18296620;32;20388;-57
2023/09/02 22:13:35;;;;;;;4.25;2.80;;;;;;;17.36;100.00;98311.03;18296051;32;20121;-57
2023/09/02 22:23:39;;;;;;;5.00;2.92;;;;;;;17.25;100.00;98310.38;18295210;32;20054;-58
2023/09/02 22:33:42;;;;;;;6.37;3.12;;;;;;;17.17;100.00;98318.44;18295368;32;20055;-58
2023/09/02 22:43:44;;;;;;;4.90;3.17;;;;;;;17.06;100.00;98302.22;18218383;32;20066;-58
2023/09/02 22:53:48;;;;;;;7.20;2.70;;;;;;;16.90;100.00;98318.00;18232718;32;20106;-57
2023/09/02 23:03:51;;;;;;;2.20;1.70;;;;;;;16.83;100.00;98325.72;18242458;32;20062;-57
2023/09/02 23:13:53;;;;;;;3.47;2.00;;;;;;;16.74;100.00;98330.22;18241752;32;20106;-58
2023/09/02 23:23:57;;;;;;;3.33;1.83;;;;;;;16.65;100.00;98335.53;18240761;32;20066;-58
2023/09/02 23:33:59;;;;;;;2.70;2.00;;;;;;;16.56;100.00;98343.56;18239575;32;20073;-58
2023/09/02 23:44:02;;;;;;;3.10;1.98;;;;;;;16.52;100.00;98345.25;18298138;32;20059;-57
2023/09/02 23:54:04;;;;;;;6.87;2.22;;;;;;;16.41;100.00;98347.28;18303479;32;20050;-57
